createdAt,value
2022-12-31T00:01:04.213Z,89.63
2022-12-31T00:03:32.162Z,86.13
2022-12-31T00:06:00.368Z,91.15
2022-12-31T00:08:28.112Z,88.78
2022-12-31T00:10:56.135Z,94.57
2022-12-31T00:13:24.503Z,79.55
2022-12-31T00:15:52.210Z,84.03
2022-12-31T00:18:19.742Z,91.43
2022-12-31T00:20:47.586Z,89.75
2022-12-31T00:23:15.457Z,94.65
2022-12-31T00:25:43.090Z,91.72
2022-12-31T00:28:10.780Z,82.18
2022-12-31T00:30:38.641Z,87.45
2022-12-31T00:33:06.241Z,92.30
2022-12-31T00:35:34.922Z,98.70
2022-12-31T00:38:02.507Z,87.45
2022-12-31T00:40:30.015Z,80.93
2022-12-31T00:42:57.661Z,83.18
2022-12-31T00:45:25.147Z,85.68
2022-12-31T00:47:53.141Z,86.18
2022-12-31T00:50:20.883Z,84.53
2022-12-31T00:52:48.520Z,79.00
2022-12-31T00:55:16.251Z,96.75
2022-12-31T00:57:44.101Z,98.00
2022-12-31T01:00:12.375Z,90.97
2022-12-31T01:02:40.533Z,86.95
2022-12-31T01:05:08.837Z,84.22
2022-12-31T01:07:38.551Z,87.65
2022-12-31T01:10:06.713Z,85.05
2022-12-31T01:12:34.251Z,85.95
2022-12-31T01:15:02.075Z,85.40
2022-12-31T01:17:30.052Z,89.80
2022-12-31T01:19:57.789Z,86.63
2022-12-31T01:22:25.412Z,80.75
2022-12-31T01:24:52.865Z,88.85
2022-12-31T01:27:21.908Z,88.03
2022-12-31T01:29:49.573Z,87.85
2022-12-31T01:32:17.145Z,81.28
2022-12-31T01:34:45.102Z,83.55
2022-12-31T01:37:12.713Z,79.97
2022-12-31T01:39:40.350Z,89.55
2022-12-31T01:42:11.775Z,82.47
2022-12-31T01:44:39.402Z,81.53
2022-12-31T01:47:16.157Z,82.20
2022-12-31T01:49:57.001Z,90.18
2022-12-31T01:52:34.026Z,81.65
2022-12-31T01:55:22.762Z,86.78
2022-12-31T01:57:55.079Z,79.63
2022-12-31T02:00:22.950Z,84.45
2022-12-31T02:02:51.198Z,78.60
2022-12-31T02:05:36.129Z,89.97
2022-12-31T02:08:04.455Z,83.55
2022-12-31T02:10:32.815Z,78.15
2022-12-31T02:13:00.645Z,91.32
2022-12-31T02:16:04.067Z,87.57
2022-12-31T02:18:50.501Z,80.53
2022-12-31T02:21:30.127Z,83.43
2022-12-31T02:24:19.613Z,82.53
2022-12-31T02:26:58.932Z,87.38
2022-12-31T02:30:05.493Z,79.45
2022-12-31T02:32:36.150Z,86.93
2022-12-31T02:35:22.501Z,76.30
2022-12-31T02:37:55.416Z,83.90
2022-12-31T02:40:23.711Z,78.72
2022-12-31T02:42:55.317Z,85.95
2022-12-31T02:45:35.741Z,87.32
2022-12-31T02:48:11.584Z,92.43
2022-12-31T02:50:57.624Z,90.15
2022-12-31T02:53:48.125Z,88.57
2022-12-31T02:59:21.925Z,81.25
2022-12-31T03:02:14.604Z,79.85
2022-12-31T03:05:03.279Z,78.45
2022-12-31T03:07:32.854Z,87.90
2022-12-31T03:10:01.620Z,76.97
2022-12-31T03:12:48.342Z,84.80
2022-12-31T03:15:34.643Z,76.55
2022-12-31T03:18:04.265Z,79.22
2022-12-31T03:20:56.549Z,76.95
2022-12-31T03:23:28.544Z,76.55
2022-12-31T03:25:57.295Z,75.35
2022-12-31T03:28:27.705Z,83.05
2022-12-31T03:33:41.973Z,87.00
2022-12-31T03:36:14.116Z,82.88
2022-12-31T03:38:42.194Z,86.47
2022-12-31T03:41:11.386Z,86.35
2022-12-31T03:43:39.187Z,80.20
2022-12-31T03:46:06.861Z,73.43
2022-12-31T03:48:34.462Z,81.30
2022-12-31T03:51:02.496Z,75.70
2022-12-31T03:53:30.605Z,78.55
2022-12-31T03:55:58.153Z,74.72
2022-12-31T03:58:25.961Z,83.40
2022-12-31T04:00:53.741Z,80.47
2022-12-31T04:03:21.485Z,74.32
2022-12-31T04:05:56.211Z,79.07
2022-12-31T04:08:24.526Z,75.05
2022-12-31T04:10:52.197Z,72.47
2022-12-31T04:13:20.131Z,79.00
2022-12-31T04:15:51.171Z,73.30
2022-12-31T04:18:18.809Z,65.38
2022-12-31T04:20:46.830Z,64.07
2022-12-31T04:23:14.277Z,33.67
2022-12-31T04:25:41.958Z,28.05
2022-12-31T04:28:12.264Z,29.15
2022-12-31T04:30:40.860Z,24.85
2022-12-31T04:33:08.446Z,72.10
2022-12-31T04:35:36.186Z,70.07
2022-12-31T04:38:04.499Z,58.70
2022-12-31T04:40:32.283Z,63.40
2022-12-31T04:42:59.684Z,62.17
2022-12-31T04:45:27.985Z,65.50
2022-12-31T04:47:55.715Z,66.32
2022-12-31T04:50:23.343Z,59.97
2022-12-31T04:52:50.852Z,63.72
2022-12-31T04:55:18.457Z,63.05
2022-12-31T04:57:46.429Z,59.80
2022-12-31T05:00:14.438Z,53.88
2022-12-31T05:02:42.187Z,62.70
2022-12-31T05:05:10.240Z,63.25
2022-12-31T05:07:37.751Z,58.35
2022-12-31T05:10:05.987Z,60.13
2022-12-31T05:12:33.743Z,57.03
2022-12-31T05:15:02.381Z,61.47
2022-12-31T05:17:29.960Z,58.95
2022-12-31T05:19:57.513Z,58.50
2022-12-31T05:22:31.179Z,54.35
2022-12-31T05:24:59.599Z,57.15
2022-12-31T05:27:31.486Z,48.50
2022-12-31T05:29:59.930Z,52.78
2022-12-31T05:32:27.510Z,56.45
2022-12-31T05:34:55.127Z,55.00
2022-12-31T05:37:23.098Z,53.30
2022-12-31T05:39:50.770Z,54.22
2022-12-31T05:42:18.664Z,50.47
2022-12-31T05:44:46.523Z,43.22
2022-12-31T05:47:14.439Z,53.17
2022-12-31T05:49:42.093Z,35.67
2022-12-31T05:52:09.792Z,35.50
2022-12-31T05:54:37.647Z,65.07
2022-12-31T05:57:05.726Z,58.38
2022-12-31T05:59:34.234Z,60.33
2022-12-31T06:02:02.104Z,54.63
2022-12-31T06:04:30.211Z,56.10
2022-12-31T06:06:58.054Z,55.60
2022-12-31T06:09:25.868Z,56.53
2022-12-31T06:11:53.958Z,54.70
2022-12-31T06:14:21.561Z,48.67
2022-12-31T06:16:49.070Z,54.08
2022-12-31T06:19:17.695Z,46.45
2022-12-31T06:21:45.494Z,44.28
2022-12-31T06:24:13.118Z,52.22
2022-12-31T06:26:40.738Z,47.35
2022-12-31T06:29:09.391Z,42.58
2022-12-31T06:31:38.182Z,39.20
2022-12-31T06:34:05.702Z,35.55
2022-12-31T06:36:33.253Z,40.72
2022-12-31T06:39:02.261Z,32.80
2022-12-31T06:41:31.227Z,41.67
2022-12-31T06:43:58.981Z,50.45
2022-12-31T06:46:26.888Z,31.05
2022-12-31T06:48:55.038Z,34.80
2022-12-31T06:51:23.301Z,42.42
2022-12-31T06:53:52.421Z,32.80
2022-12-31T06:56:32.993Z,39.63
2022-12-31T06:59:01.966Z,56.22
2022-12-31T07:01:59.284Z,36.40
2022-12-31T07:04:39.043Z,44.35
2022-12-31T07:07:13.188Z,42.97
2022-12-31T07:09:46.288Z,54.80
2022-12-31T07:12:36.445Z,53.88
2022-12-31T07:15:14.192Z,45.40
2022-12-31T07:17:53.956Z,38.15
2022-12-31T07:20:22.360Z,25.27
2022-12-31T07:22:50.651Z,41.10
2022-12-31T07:25:20.170Z,51.97
2022-12-31T07:28:10.015Z,43.75
2022-12-31T07:31:02.562Z,40.88
2022-12-31T07:33:41.121Z,45.30
2022-12-31T07:36:14.951Z,44.67
2022-12-31T07:38:54.171Z,42.60
2022-12-31T07:41:34.049Z,46.85
2022-12-31T07:44:13.180Z,45.55
2022-12-31T07:46:59.431Z,42.72
2022-12-31T07:49:29.491Z,36.80
2022-12-31T07:51:58.157Z,29.35
2022-12-31T07:54:26.289Z,19.70
2022-12-31T07:56:54.076Z,15.25
2022-12-31T07:59:32.200Z,44.75
2022-12-31T08:02:29.322Z,20.17
2022-12-31T08:05:16.694Z,18.23
2022-12-31T08:08:07.225Z,11.05
2022-12-31T08:13:13.305Z,11.70
2022-12-31T08:15:41.864Z,10.85
2022-12-31T08:18:11.754Z,87.22
2022-12-31T08:21:15.985Z,51.53
2022-12-31T08:24:02.200Z,42.20
2022-12-31T08:26:46.952Z,94.57
2022-12-31T08:29:40.699Z,65.40
2022-12-31T08:32:14.496Z,67.32
2022-12-31T08:35:10.696Z,67.97
2022-12-31T08:37:44.328Z,53.67
2022-12-31T08:40:29.350Z,54.85
2022-12-31T08:43:21.987Z,53.92
2022-12-31T08:45:53.493Z,67.88
2022-12-31T08:48:42.691Z,57.88
2022-12-31T08:51:21.672Z,67.40
2022-12-31T08:53:50.251Z,37.67
2022-12-31T08:56:29.979Z,48.30
2022-12-31T08:59:23.263Z,40.50
2022-12-31T09:02:28.307Z,247.13
2022-12-31T09:05:22.448Z,85.22
2022-12-31T09:08:20.762Z,83.03
2022-12-31T09:11:16.375Z,69.50
2022-12-31T09:13:58.877Z,54.92
2022-12-31T09:16:53.567Z,57.40
2022-12-31T09:19:21.687Z,74.65
2022-12-31T09:21:50.552Z,70.30
2022-12-31T09:24:18.878Z,42.53
2022-12-31T09:27:09.867Z,52.45
2022-12-31T09:29:40.911Z,46.72
2022-12-31T09:32:14.893Z,39.42
2022-12-31T09:34:53.590Z,40.78
2022-12-31T09:37:50.345Z,42.03
2022-12-31T09:40:55.998Z,41.38
2022-12-31T09:43:48.860Z,23.45
2022-12-31T09:46:38.318Z,94.10
2022-12-31T09:49:12.336Z,54.30
2022-12-31T09:51:56.301Z,72.10
2022-12-31T09:55:09.439Z,35.28
2022-12-31T09:57:46.870Z,36.03
2022-12-31T10:00:43.872Z,45.63
2022-12-31T10:03:36.846Z,49.83
2022-12-31T10:06:40.218Z,54.60
2022-12-31T10:09:26.526Z,66.03
2022-12-31T10:12:21.839Z,51.42
2022-12-31T10:14:54.118Z,54.20
2022-12-31T10:17:40.590Z,47.17
2022-12-31T10:20:26.875Z,53.17
2022-12-31T10:23:43.229Z,54.33
2022-12-31T10:26:13.952Z,87.15
2022-12-31T10:28:45.929Z,92.53
2022-12-31T10:31:33.767Z,93.28
2022-12-31T10:34:14.096Z,89.93
2022-12-31T10:36:54.822Z,96.85
2022-12-31T10:39:34.830Z,104.55
2022-12-31T10:42:18.487Z,90.70
2022-12-31T10:45:12.362Z,99.05
2022-12-31T10:48:08.268Z,105.00
2022-12-31T10:51:07.702Z,77.53
2022-12-31T10:54:07.541Z,52.33
2022-12-31T10:57:16.822Z,51.15
2022-12-31T11:00:35.125Z,60.15
2022-12-31T11:03:28.869Z,43.63
2022-12-31T11:06:15.991Z,43.42
2022-12-31T11:09:13.846Z,55.30
2022-12-31T11:12:11.046Z,76.43
2022-12-31T11:14:58.774Z,56.58
2022-12-31T11:17:29.731Z,59.03
2022-12-31T11:20:13.824Z,23.17
2022-12-31T11:22:51.428Z,17.73
2022-12-31T11:25:31.197Z,21.50
2022-12-31T11:28:01.861Z,44.13
2022-12-31T11:31:06.940Z,51.40
2022-12-31T11:34:26.094Z,52.60
2022-12-31T11:37:11.307Z,73.60
2022-12-31T11:39:59.355Z,29.08
2022-12-31T11:42:40.003Z,26.95
2022-12-31T11:45:23.219Z,36.80
2022-12-31T11:48:38.088Z,28.92
2022-12-31T11:51:27.132Z,33.67
2022-12-31T11:54:32.868Z,30.90
2022-12-31T11:57:23.708Z,42.22
2022-12-31T12:00:14.453Z,54.75
2022-12-31T12:03:05.357Z,46.05
2022-12-31T12:05:35.391Z,36.58
2022-12-31T12:08:04.181Z,48.78
2022-12-31T12:10:42.442Z,46.10
2022-12-31T12:13:29.981Z,51.00
2022-12-31T12:16:00.731Z,47.42
2022-12-31T12:18:34.245Z,45.85
2022-12-31T12:21:10.177Z,43.03
2022-12-31T12:23:39.810Z,46.55
2022-12-31T12:26:25.840Z,50.15
2022-12-31T12:28:54.101Z,44.00
2022-12-31T12:31:23.982Z,49.70
2022-12-31T12:33:53.664Z,50.47
2022-12-31T12:36:22.765Z,49.33
2022-12-31T12:39:07.275Z,65.50
2022-12-31T12:41:35.219Z,71.55
2022-12-31T12:44:16.093Z,59.17
2022-12-31T12:46:53.085Z,65.55
2022-12-31T12:49:31.704Z,53.85
2022-12-31T12:52:27.799Z,48.67
2022-12-31T12:55:20.492Z,57.10
2022-12-31T12:58:19.330Z,56.35
2022-12-31T13:01:21.610Z,60.25
2022-12-31T13:04:34.019Z,56.80
2022-12-31T13:07:19.582Z,56.50
2022-12-31T13:09:56.376Z,54.17
2022-12-31T13:12:24.431Z,50.40
2022-12-31T13:15:17.487Z,47.58
2022-12-31T13:18:01.664Z,93.72
2022-12-31T13:20:54.866Z,156.95
2022-12-31T13:23:37.796Z,106.03
2022-12-31T13:26:16.419Z,124.85
2022-12-31T13:28:47.507Z,125.78
2022-12-31T13:31:30.297Z,106.22
2022-12-31T13:34:07.828Z,174.40
2022-12-31T13:36:41.168Z,362.33
2022-12-31T13:39:17.661Z,245.57
2022-12-31T13:42:27.782Z,159.38
2022-12-31T13:45:14.279Z,118.90
2022-12-31T13:47:57.792Z,95.18
2022-12-31T13:50:53.643Z,95.47
2022-12-31T13:53:27.595Z,95.88
2022-12-31T13:56:05.375Z,98.93
2022-12-31T13:58:51.089Z,84.82
2022-12-31T14:01:26.255Z,113.00
2022-12-31T14:04:05.123Z,96.43
2022-12-31T14:07:07.619Z,91.25
2022-12-31T14:09:36.985Z,90.05
2022-12-31T14:12:24.321Z,77.63
2022-12-31T14:14:55.789Z,74.85
2022-12-31T14:17:48.283Z,65.45
2022-12-31T14:20:38.699Z,62.13
2022-12-31T14:23:28.428Z,64.78
2022-12-31T14:26:19.413Z,66.78
2022-12-31T14:29:11.949Z,75.30
2022-12-31T14:31:54.936Z,74.05
2022-12-31T14:35:15.056Z,94.68
2022-12-31T14:37:54.943Z,86.00
2022-12-31T14:40:35.129Z,78.22
2022-12-31T14:43:19.151Z,102.82
2022-12-31T14:46:05.977Z,96.82
2022-12-31T14:48:56.581Z,114.45
2022-12-31T14:54:01.181Z,113.63
2022-12-31T14:56:43.491Z,112.75
2022-12-31T14:59:28.536Z,105.75
2022-12-31T15:01:58.948Z,110.35
2022-12-31T15:04:42.991Z,73.88
2022-12-31T15:07:17.307Z,90.80
2022-12-31T15:10:10.740Z,95.63
2022-12-31T15:12:56.811Z,71.22
2022-12-31T15:16:02.980Z,72.70
2022-12-31T15:18:44.700Z,70.82
2022-12-31T15:21:57.344Z,67.95
2022-12-31T15:24:28.486Z,85.32
2022-12-31T15:27:04.301Z,78.30
2022-12-31T15:29:35.753Z,103.05
2022-12-31T15:32:05.699Z,135.65
2022-12-31T15:34:37.207Z,105.32
2022-12-31T15:37:26.489Z,105.25
2022-12-31T15:40:16.867Z,97.07
2022-12-31T15:43:32.649Z,94.55
2022-12-31T15:46:02.457Z,95.85
2022-12-31T15:48:49.032Z,88.80
2022-12-31T15:51:33.169Z,89.55
2022-12-31T15:54:04.795Z,109.05
2022-12-31T15:56:35.128Z,89.70
2022-12-31T15:59:07.315Z,94.22
2022-12-31T16:01:37.314Z,94.10
2022-12-31T16:04:09.192Z,77.50
2022-12-31T16:06:38.408Z,78.55
2022-12-31T16:09:21.239Z,73.70
2022-12-31T16:11:49.669Z,77.20
2022-12-31T16:14:35.336Z,77.88
2022-12-31T16:17:04.400Z,71.03
2022-12-31T16:19:51.226Z,72.80
2022-12-31T16:22:43.657Z,69.07
2022-12-31T16:25:30.538Z,68.63
2022-12-31T16:28:02.702Z,67.57
2022-12-31T16:30:38.091Z,71.78
2022-12-31T16:33:16.635Z,85.25
2022-12-31T16:35:58.138Z,75.22
2022-12-31T16:38:37.794Z,79.50
2022-12-31T16:41:17.955Z,83.75
2022-12-31T16:43:48.452Z,70.53
2022-12-31T16:46:21.228Z,82.15
2022-12-31T16:48:53.743Z,72.93
2022-12-31T16:51:25.386Z,78.45
2022-12-31T16:53:54.303Z,67.97
2022-12-31T16:56:35.132Z,93.75
2022-12-31T16:59:12.727Z,102.93
2022-12-31T17:01:41.666Z,131.13
2022-12-31T17:04:12.501Z,145.20
2022-12-31T17:06:40.477Z,139.75
2022-12-31T17:09:11.127Z,138.32
2022-12-31T17:11:55.958Z,116.93
2022-12-31T17:14:31.258Z,125.20
2022-12-31T17:17:08.905Z,105.68
2022-12-31T17:19:49.363Z,128.18
2022-12-31T17:22:30.743Z,107.10
2022-12-31T17:25:06.915Z,109.88
2022-12-31T17:27:37.062Z,91.47
2022-12-31T17:30:37.652Z,87.15
2022-12-31T17:36:19.263Z,96.47
2022-12-31T17:38:47.665Z,94.57
2022-12-31T17:41:28.477Z,84.60
2022-12-31T17:43:57.724Z,86.90
2022-12-31T17:46:26.671Z,92.38
2022-12-31T17:48:59.836Z,92.60
2022-12-31T17:51:28.017Z,86.68
2022-12-31T17:53:56.705Z,97.32
2022-12-31T17:56:24.819Z,98.95
2022-12-31T17:58:55.197Z,88.97
2022-12-31T18:03:52.921Z,85.03
2022-12-31T18:06:21.327Z,82.50
2022-12-31T18:08:49.337Z,79.28
2022-12-31T18:11:23.765Z,79.45
2022-12-31T18:13:53.672Z,89.85
2022-12-31T18:16:21.811Z,80.22
2022-12-31T18:18:51.481Z,75.00
2022-12-31T18:21:31.085Z,87.13
2022-12-31T18:26:30.056Z,127.68
2022-12-31T18:29:02.145Z,100.07
2022-12-31T18:31:31.152Z,120.57
2022-12-31T18:33:59.859Z,117.75
2022-12-31T18:36:28.945Z,123.32
2022-12-31T18:38:56.559Z,117.68
2022-12-31T18:41:28.351Z,109.40
2022-12-31T18:43:56.744Z,119.22
2022-12-31T18:46:26.875Z,107.35
2022-12-31T18:48:55.235Z,102.35
2022-12-31T18:51:31.298Z,97.32
2022-12-31T18:54:03.943Z,112.25
2022-12-31T18:56:32.637Z,120.25
2022-12-31T18:59:03.190Z,97.88
2022-12-31T19:01:37.319Z,98.88
2022-12-31T19:04:14.737Z,93.85
2022-12-31T19:06:43.208Z,137.38
2022-12-31T19:09:42.897Z,112.60
2022-12-31T19:12:01.115Z,113.82
2022-12-31T19:14:29.442Z,128.88
2022-12-31T19:19:26.557Z,142.20
2022-12-31T19:21:54.662Z,173.07
2022-12-31T19:24:27.328Z,219.93
2022-12-31T19:26:55.925Z,196.18
2022-12-31T19:29:28.436Z,212.35
2022-12-31T19:31:58.385Z,256.77
2022-12-31T19:34:27.940Z,223.80
2022-12-31T19:36:56.685Z,212.37
2022-12-31T19:39:24.865Z,232.88
2022-12-31T19:41:58.832Z,190.70
2022-12-31T19:44:27.393Z,199.55
2022-12-31T19:46:55.139Z,195.70
2022-12-31T19:49:22.934Z,180.38
2022-12-31T19:51:50.737Z,187.85
2022-12-31T19:54:18.587Z,154.30
2022-12-31T19:56:46.726Z,153.82
2022-12-31T19:59:14.664Z,168.50
2022-12-31T20:01:42.885Z,205.88
2022-12-31T20:04:11.405Z,174.60
2022-12-31T20:06:39.825Z,172.23
2022-12-31T20:09:07.705Z,155.57
2022-12-31T20:11:35.479Z,128.73
2022-12-31T20:14:03.357Z,94.15
2022-12-31T20:16:32.914Z,109.00
2022-12-31T20:19:01.764Z,100.93
2022-12-31T20:21:30.807Z,169.85
2022-12-31T20:23:58.942Z,124.38
2022-12-31T20:26:26.840Z,108.63
2022-12-31T20:28:54.768Z,144.05
2022-12-31T20:31:26.080Z,148.35
2022-12-31T20:33:57.709Z,161.48
2022-12-31T20:36:26.924Z,161.02
2022-12-31T20:38:54.900Z,139.98
2022-12-31T20:41:23.642Z,153.32
2022-12-31T20:43:52.265Z,205.73
2022-12-31T20:46:25.496Z,160.73
2022-12-31T20:48:55.633Z,173.45
2022-12-31T20:51:25.109Z,157.23
2022-12-31T20:54:02.142Z,162.18
2022-12-31T20:56:32.519Z,135.60
2022-12-31T20:59:03.769Z,132.75
2022-12-31T21:01:55.183Z,182.73
2022-12-31T21:04:19.957Z,175.40
2022-12-31T21:06:49.247Z,185.93
2022-12-31T21:09:17.147Z,177.13
2022-12-31T21:12:03.705Z,150.93
2022-12-31T21:14:31.856Z,144.73
2022-12-31T21:17:01.989Z,137.15
2022-12-31T21:19:29.794Z,150.82
2022-12-31T21:21:57.604Z,143.38
2022-12-31T21:24:25.878Z,151.85
2022-12-31T21:26:57.302Z,134.93
2022-12-31T21:29:26.898Z,135.98
2022-12-31T21:31:56.535Z,131.90
2022-12-31T21:34:24.191Z,129.55
2022-12-31T21:36:51.911Z,157.70
2022-12-31T21:39:20.167Z,125.50
2022-12-31T21:41:53.800Z,120.20
2022-12-31T21:44:24.248Z,129.02
2022-12-31T21:47:41.251Z,140.30
2022-12-31T21:50:09.642Z,133.93
2022-12-31T21:52:37.240Z,146.48
2022-12-31T21:55:24.384Z,138.27
2022-12-31T21:58:24.739Z,139.52
2022-12-31T22:00:59.322Z,114.93
2022-12-31T22:03:28.529Z,112.07
2022-12-31T22:06:14.395Z,119.88
2022-12-31T22:08:45.128Z,118.13
2022-12-31T22:11:15.360Z,142.93
2022-12-31T22:13:43.363Z,121.45
2022-12-31T22:16:13.301Z,138.82
2022-12-31T22:18:43.504Z,123.75
2022-12-31T22:21:19.531Z,148.00
2022-12-31T22:23:52.940Z,137.77
2022-12-31T22:26:24.595Z,164.63
2022-12-31T22:28:52.911Z,135.05
2022-12-31T22:31:24.518Z,124.97
2022-12-31T22:33:53.139Z,144.65
2022-12-31T22:36:22.642Z,113.22
2022-12-31T22:38:54.417Z,139.63
2022-12-31T22:41:23.254Z,145.35
2022-12-31T22:43:58.642Z,162.77
2022-12-31T22:46:31.169Z,132.65
2022-12-31T22:49:00.115Z,145.48
2022-12-31T22:51:57.791Z,117.60
2022-12-31T22:54:16.909Z,152.23
2022-12-31T22:56:45.043Z,133.10
2022-12-31T22:59:13.975Z,177.65
2022-12-31T23:01:41.761Z,177.30
2022-12-31T23:04:09.991Z,184.63
2022-12-31T23:06:44.205Z,325.58
2022-12-31T23:09:32.779Z,423.65
2022-12-31T23:12:01.514Z,486.88
2022-12-31T23:14:47.700Z,694.17
2022-12-31T23:17:40.780Z,798.95
2022-12-31T23:20:33.199Z,687.78
2022-12-31T23:23:10.128Z,677.47
2022-12-31T23:25:42.700Z,734.90
2022-12-31T23:28:14.413Z,533.38
2022-12-31T23:30:43.694Z,448.77
2022-12-31T23:33:23.704Z,506.52
2022-12-31T23:36:01.824Z,573.92
2022-12-31T23:38:29.504Z,513.92
2022-12-31T23:40:57.178Z,427.70
2022-12-31T23:43:25.045Z,410.85
2022-12-31T23:45:53.632Z,425.63
2022-12-31T23:48:21.902Z,409.70
2022-12-31T23:50:53.933Z,302.02
2022-12-31T23:53:23.965Z,303.20
2022-12-31T23:55:53.346Z,366.67
2022-12-31T23:58:21.906Z,343.27
